Time;durP1;ratioP1;P1;durP2;ratioP2;P2;SDS_P1;SDS_P2;PMS_P1;PMS_P2;Temp;Humidity;BMP_temperature;BMP_pressure;BME280_temperature;BME280_humidity;BME280_pressure;Samples;Min_cycle;Max_cycle;Signal;HPM_P1;HPM_P2
2023/09/27 00:00:09;;;;;;;11.25;7.40;;;;;;;;;;5024470;28;20468;-90
2023/09/27 00:02:40;;;;;;;12.60;8.32;;;;;;;;;;5032712;28;20479;-90
2023/09/27 00:05:10;;;;;;;10.70;7.82;;;;;;;;;;5031936;28;20077;-90
2023/09/27 00:07:39;;;;;;;9.93;8.25;;;;;;;;;;5032269;28;20049;-90
2023/09/27 00:10:11;;;;;;;8.60;7.47;;;;;;;;;;5020038;28;20050;-90
2023/09/27 00:12:39;;;;;;;11.20;7.75;;;;;;;;;;5044482;28;20049;-90
2023/09/27 00:15:08;;;;;;;14.20;8.90;;;;;;;;;;5040105;28;20156;-89
2023/09/27 00:17:35;;;;;;;8.38;7.57;;;;;;;;;;5031257;28;20127;-89
2023/09/27 00:20:05;;;;;;;8.60;7.55;;;;;;;;;;5032550;28;20406;-90
2023/09/27 00:22:32;;;;;;;8.85;7.70;;;;;;;;;;5033247;28;20045;-90
2023/09/27 00:25:00;;;;;;;8.90;7.53;;;;;;;;;;5033267;28;20410;-89
2023/09/27 00:27:27;;;;;;;10.02;8.88;;;;;;;;;;5031782;28;20518;-89
2023/09/27 00:29:55;;;;;;;10.85;8.38;;;;;;;;;;5031801;28;20049;-89
2023/09/27 00:32:22;;;;;;;11.18;8.38;;;;;;;;;;5031761;28;20049;-90
2023/09/27 00:34:50;;;;;;;9.15;8.25;;;;;;;;;;5033889;28;20049;-90
2023/09/27 00:37:17;;;;;;;10.68;8.13;;;;;;;;;;5035194;28;20060;-90
2023/09/27 00:39:45;;;;;;;9.30;8.20;;;;;;;;;;5035307;28;20049;-90
2023/09/27 00:42:12;;;;;;;10.70;8.35;;;;;;;;;;5036479;28;20084;-90
2023/09/27 00:44:40;;;;;;;10.85;8.38;;;;;;;;;;5035187;28;20049;-90
2023/09/27 00:47:08;;;;;;;9.27;7.88;;;;;;;;;;5035345;28;20050;-90
2023/09/27 00:49:36;;;;;;;8.80;7.90;;;;;;;;;;5031547;28;20049;-90
2023/09/27 00:52:03;;;;;;;9.07;7.90;;;;;;;;;;5051185;28;20456;-90
2023/09/27 00:54:31;;;;;;;9.10;7.75;;;;;;;;;;5034962;28;20474;-90
2023/09/27 00:56:59;;;;;;;12.77;8.43;;;;;;;;;;5035135;28;20053;-90
2023/09/27 00:59:26;;;;;;;11.98;8.40;;;;;;;;;;5036205;28;20469;-90
2023/09/27 01:01:53;;;;;;;10.70;7.68;;;;;;;;;;5035458;28;20065;-89
2023/09/27 01:04:21;;;;;;;14.20;8.75;;;;;;;;;;5034579;28;20041;-90
2023/09/27 01:06:49;;;;;;;14.95;9.80;;;;;;;;;;5035891;28;20053;-90
2023/09/27 01:09:17;;;;;;;9.52;8.63;;;;;;;;;;5035156;28;20100;-90
2023/09/27 01:11:46;;;;;;;10.18;9.02;;;;;;;;;;5034630;28;20057;-90
2023/09/27 01:14:13;;;;;;;9.75;8.75;;;;;;;;;;5035065;28;20049;-90
2023/09/27 01:16:41;;;;;;;10.52;9.07;;;;;;;;;;5027313;28;20064;-90
2023/09/27 01:19:09;;;;;;;9.38;8.38;;;;;;;;;;5034774;28;20402;-91
2023/09/27 01:21:36;;;;;;;8.82;7.93;;;;;;;;;;5034615;28;20054;-90
2023/09/27 01:24:06;;;;;;;8.93;7.55;;;;;;;;;;5036162;28;20087;-90
2023/09/27 01:26:34;;;;;;;8.73;7.82;;;;;;;;;;5035751;28;20053;-90
2023/09/27 01:29:02;;;;;;;9.85;8.57;;;;;;;;;;5034692;28;20571;-90
2023/09/27 01:31:29;;;;;;;10.95;8.15;;;;;;;;;;5035181;28;20057;-90
2023/09/27 01:33:56;;;;;;;8.88;7.97;;;;;;;;;;5035373;28;20430;-90
2023/09/27 01:36:24;;;;;;;9.27;7.70;;;;;;;;;;5035662;28;20046;-90
2023/09/27 01:38:51;;;;;;;10.50;8.70;;;;;;;;;;5034391;28;20049;-89
2023/09/27 01:41:19;;;;;;;9.75;8.75;;;;;;;;;;5033881;28;20417;-90
2023/09/27 01:43:46;;;;;;;15.05;8.20;;;;;;;;;;5033921;28;20045;-90
2023/09/27 01:46:13;;;;;;;11.50;8.70;;;;;;;;;;5034591;28;20077;-90
2023/09/27 01:48:41;;;;;;;9.02;8.23;;;;;;;;;;5035060;28;20041;-90
2023/09/27 01:51:08;;;;;;;11.98;9.27;;;;;;;;;;5026103;28;20107;-90
2023/09/27 01:53:35;;;;;;;8.85;7.95;;;;;;;;;;5033950;28;20096;-91
2023/09/27 01:56:03;;;;;;;10.90;8.13;;;;;;;;;;5035065;28;20395;-91
2023/09/27 01:58:30;;;;;;;9.50;7.97;;;;;;;;;;5034869;28;20056;-90
2023/09/27 02:00:57;;;;;;;9.63;8.68;;;;;;;;;;5033341;28;20045;-91
2023/09/27 02:03:25;;;;;;;13.40;8.70;;;;;;;;;;5033488;28;20046;-90
2023/09/27 02:05:52;;;;;;;11.30;9.25;;;;;;;;;;5034829;28;20075;-90
2023/09/27 02:08:19;;;;;;;10.10;8.88;;;;;;;;;;5034015;28;20132;-91
2023/09/27 02:10:50;;;;;;;10.52;8.73;;;;;;;;;;5034616;28;20561;-90
2023/09/27 02:13:18;;;;;;;10.63;9.30;;;;;;;;;;5033444;28;20148;-90
2023/09/27 02:15:45;;;;;;;9.77;8.40;;;;;;;;;;5033174;28;20482;-90
2023/09/27 02:18:13;;;;;;;9.45;8.65;;;;;;;;;;5029983;28;20064;-91
2023/09/27 02:20:41;;;;;;;10.63;9.60;;;;;;;;;;5046321;28;20045;-91
2023/09/27 02:23:08;;;;;;;10.23;8.48;;;;;;;;;;5033676;28;20065;-91
2023/09/27 02:25:35;;;;;;;11.25;9.52;;;;;;;;;;5034412;28;20042;-91
2023/09/27 02:28:03;;;;;;;13.27;8.75;;;;;;;;;;5034982;28;20081;-90
2023/09/27 02:30:30;;;;;;;13.98;9.77;;;;;;;;;;5033159;28;20115;-91
2023/09/27 02:32:57;;;;;;;10.68;9.25;;;;;;;;;;5034251;28;20042;-90
2023/09/27 02:35:25;;;;;;;11.45;9.25;;;;;;;;;;5033287;28;20041;-90
2023/09/27 02:37:52;;;;;;;10.63;9.50;;;;;;;;;;5033318;28;20057;-90
2023/09/27 02:40:20;;;;;;;12.73;9.30;;;;;;;;;;5032878;28;20045;-90
2023/09/27 02:42:48;;;;;;;18.15;10.38;;;;;;;;;;5033026;28;20100;-90
2023/09/27 02:45:15;;;;;;;14.00;10.02;;;;;;;;;;5033994;28;20054;-90
2023/09/27 02:47:44;;;;;;;10.38;9.30;;;;;;;;;;5032780;28;20159;-90
2023/09/27 02:50:12;;;;;;;12.60;8.68;;;;;;;;;;5032957;28;20095;-91
2023/09/27 02:52:39;;;;;;;16.17;9.85;;;;;;;;;;5033778;28;20057;-90
2023/09/27 02:55:08;;;;;;;12.30;9.48;;;;;;;;;;5049009;28;20486;-91
2023/09/27 02:57:37;;;;;;;13.57;9.85;;;;;;;;;;5032283;28;20053;-91
2023/09/27 03:00:06;;;;;;;10.80;8.57;;;;;;;;;;5032681;28;20441;-91
2023/09/27 03:02:34;;;;;;;9.70;8.70;;;;;;;;;;5032205;28;20045;-91
2023/09/27 03:05:07;;;;;;;9.95;8.35;;;;;;;;;;5032664;28;20136;-91
2023/09/27 03:07:35;;;;;;;15.27;9.60;;;;;;;;;;5032540;28;20184;-90
2023/09/27 03:10:08;;;;;;;12.05;8.70;;;;;;;;;;5032709;28;20045;-90
2023/09/27 03:12:36;;;;;;;19.65;8.80;;;;;;;;;;5033529;28;20073;-90
2023/09/27 03:15:03;;;;;;;13.60;9.05;;;;;;;;;;5034144;28;20049;-90
2023/09/27 03:17:31;;;;;;;15.05;9.30;;;;;;;;;;5033366;28;20045;-91
2023/09/27 03:19:58;;;;;;;10.82;8.88;;;;;;;;;;5032170;28;20057;-90
2023/09/27 03:22:26;;;;;;;10.80;9.38;;;;;;;;;;5028759;28;20054;-90
2023/09/27 03:24:54;;;;;;;10.60;9.48;;;;;;;;;;5047286;28;20049;-90
2023/09/27 03:27:21;;;;;;;10.45;8.70;;;;;;;;;;5032485;28;20053;-91
2023/09/27 03:29:48;;;;;;;15.65;9.50;;;;;;;;;;5032160;28;20053;-91
2023/09/27 03:32:16;;;;;;;10.43;9.20;;;;;;;;;;5032174;28;20084;-90
2023/09/27 03:34:44;;;;;;;9.23;8.32;;;;;;;;;;5032000;28;20049;-91
2023/09/27 03:37:11;;;;;;;10.40;8.95;;;;;;;;;;5032345;28;20460;-90
2023/09/27 03:39:38;;;;;;;11.43;8.70;;;;;;;;;;5032174;28;20053;-90
2023/09/27 03:42:06;;;;;;;12.02;9.45;;;;;;;;;;5032135;28;20045;-92
2023/09/27 03:44:34;;;;;;;11.07;9.27;;;;;;;;;;5032220;28;20045;-91
2023/09/27 03:47:01;;;;;;;10.85;9.75;;;;;;;;;;5031599;28;20065;-90
2023/09/27 03:49:29;;;;;;;11.90;9.80;;;;;;;;;;5028514;28;20505;-91
2023/09/27 03:51:57;;;;;;;8.32;7.47;;;;;;;;;;5047431;28;20148;-91
2023/09/27 03:54:24;;;;;;;11.25;9.38;;;;;;;;;;5032035;28;20049;-91
2023/09/27 03:56:52;;;;;;;13.75;9.20;;;;;;;;;;5031918;28;20098;-91
2023/09/27 03:59:19;;;;;;;9.95;8.80;;;;;;;;;;5031972;28;20133;-91
2023/09/27 04:01:46;;;;;;;11.40;8.40;;;;;;;;;;5030970;28;20103;-91
2023/09/27 04:04:14;;;;;;;11.98;9.20;;;;;;;;;;5048356;28;20528;-91
2023/09/27 04:06:42;;;;;;;13.05;10.32;;;;;;;;;;5032038;28;20072;-91
2023/09/27 04:09:10;;;;;;;15.68;10.07;;;;;;;;;;5051937;28;20056;-91
2023/09/27 04:11:37;;;;;;;12.27;9.98;;;;;;;;;;5035632;28;20164;-91
2023/09/27 04:14:05;;;;;;;12.20;9.73;;;;;;;;;;5035740;28;20100;-89
2023/09/27 04:16:33;;;;;;;13.73;9.85;;;;;;;;;;5035690;28;20378;-91
2023/09/27 04:19:00;;;;;;;13.63;10.00;;;;;;;;;;5035842;28;20107;-91
2023/09/27 04:21:29;;;;;;;12.18;9.40;;;;;;;;;;5035761;28;20124;-91
2023/09/27 04:23:57;;;;;;;12.57;9.63;;;;;;;;;;5035834;28;20128;-91
2023/09/27 04:26:24;;;;;;;16.95;10.75;;;;;;;;;;5035663;28;20049;-91
2023/09/27 04:28:52;;;;;;;13.95;9.02;;;;;;;;;;5035377;28;20057;-90
2023/09/27 04:31:20;;;;;;;23.95;11.75;;;;;;;;;;5052014;28;20053;-91
2023/09/27 04:33:47;;;;;;;17.05;11.73;;;;;;;;;;5035650;28;20056;-91
2023/09/27 04:36:16;;;;;;;12.90;10.38;;;;;;;;;;5035498;28;20045;-91
2023/09/27 04:38:45;;;;;;;20.50;11.23;;;;;;;;;;5032345;28;20057;-90
2023/09/27 04:41:16;;;;;;;15.25;10.85;;;;;;;;;;5035057;28;20058;-90
2023/09/27 04:43:46;;;;;;;25.25;10.65;;;;;;;;;;5035852;28;20103;-91
2023/09/27 04:46:14;;;;;;;14.30;11.02;;;;;;;;;;5032155;28;20096;-91
2023/09/27 04:48:41;;;;;;;11.00;9.88;;;;;;;;;;5048745;28;20059;-91
2023/09/27 04:51:09;;;;;;;10.48;9.38;;;;;;;;;;5028445;28;20053;-91
2023/09/27 04:53:37;;;;;;;12.30;9.85;;;;;;;;;;5036246;28;20466;-91
2023/09/27 04:56:11;;;;;;;13.63;9.60;;;;;;;;;;5036338;28;20111;-91
2023/09/27 04:58:43;;;;;;;12.77;10.02;;;;;;;;;;5036374;28;20387;-91
2023/09/27 05:01:10;;;;;;;12.38;8.95;;;;;;;;;;5028449;28;20053;-91
2023/09/27 05:03:38;;;;;;;22.08;10.80;;;;;;;;;;5032428;28;20056;-92
2023/09/27 05:06:06;;;;;;;19.77;10.45;;;;;;;;;;5051992;28;20111;-89
2023/09/27 05:08:34;;;;;;;16.13;10.25;;;;;;;;;;5035825;28;20053;-91
2023/09/27 05:11:02;;;;;;;15.60;10.43;;;;;;;;;;5035219;28;20053;-91
2023/09/27 05:13:30;;;;;;;11.63;10.15;;;;;;;;;;5034996;28;20065;-90
2023/09/27 05:15:57;;;;;;;27.13;12.18;;;;;;;;;;5034529;28;20060;-91
2023/09/27 05:18:25;;;;;;;24.13;13.95;;;;;;;;;;5051029;28;20053;-91
2023/09/27 05:20:52;;;;;;;18.55;11.25;;;;;;;;;;5033632;28;20045;-91
2023/09/27 05:23:20;;;;;;;20.13;12.00;;;;;;;;;;5034658;28;20053;-91
2023/09/27 05:25:48;;;;;;;22.33;12.80;;;;;;;;;;5034618;28;20108;-91
2023/09/27 05:28:16;;;;;;;19.60;13.48;;;;;;;;;;5027761;28;20108;-91
2023/09/27 05:30:43;;;;;;;19.60;13.32;;;;;;;;;;5034289;28;20119;-90
2023/09/27 05:33:11;;;;;;;20.13;13.02;;;;;;;;;;5034354;28;20114;-91
2023/09/27 05:35:38;;;;;;;37.35;23.95;;;;;;;;;;5034237;28;20124;-91
2023/09/27 05:38:06;;;;;;;46.58;28.67;;;;;;;;;;5034573;28;20414;-91
2023/09/27 05:40:33;;;;;;;41.30;27.70;;;;;;;;;;5034503;28;20554;-91
2023/09/27 05:43:02;;;;;;;33.00;18.25;;;;;;;;;;5034081;28;20049;-91
2023/09/27 05:45:29;;;;;;;30.58;17.08;;;;;;;;;;5050516;28;20053;-91
2023/09/27 05:47:57;;;;;;;30.67;21.42;;;;;;;;;;5033996;28;20123;-91
2023/09/27 05:50:25;;;;;;;30.30;22.25;;;;;;;;;;5033970;28;20122;-91
2023/09/27 05:52:52;;;;;;;34.17;22.75;;;;;;;;;;5033970;28;20050;-91
2023/09/27 05:55:20;;;;;;;33.00;21.10;;;;;;;;;;5035145;28;20072;-91
2023/09/27 05:57:49;;;;;;;31.35;21.33;;;;;;;;;;5034051;28;20057;-91
2023/09/27 06:00:26;;;;;;;30.73;17.88;;;;;;;;;;5033602;28;20099;-90
2023/09/27 06:02:54;;;;;;;27.00;16.88;;;;;;;;;;5034352;28;20131;-91
2023/09/27 06:05:22;;;;;;;18.92;14.40;;;;;;;;;;5034703;28;20045;-91
2023/09/27 06:07:52;;;;;;;28.63;19.15;;;;;;;;;;5036714;28;20057;-91
2023/09/27 06:10:19;;;;;;;24.65;18.00;;;;;;;;;;5035456;28;20505;-91
2023/09/27 06:12:47;;;;;;;28.05;19.73;;;;;;;;;;5033496;28;20064;-90
2023/09/27 06:15:16;;;;;;;32.70;22.58;;;;;;;;;;5033827;28;20054;-90
2023/09/27 06:17:44;;;;;;;37.03;23.48;;;;;;;;;;5033118;28;20054;-90
2023/09/27 06:20:19;;;;;;;42.33;25.15;;;;;;;;;;5033717;28;20045;-91
2023/09/27 06:22:52;;;;;;;29.60;20.48;;;;;;;;;;5033609;28;20053;-91
2023/09/27 06:25:23;;;;;;;19.63;16.42;;;;;;;;;;5033624;28;20453;-90
2023/09/27 06:27:52;;;;;;;27.38;19.88;;;;;;;;;;5032871;28;20060;-90
2023/09/27 06:30:20;;;;;;;25.30;17.88;;;;;;;;;;5033807;28;20401;-90
2023/09/27 06:32:48;;;;;;;41.88;21.27;;;;;;;;;;5032608;28;20064;-91
2023/09/27 06:35:16;;;;;;;42.30;20.83;;;;;;;;;;5033456;28;20056;-87
2023/09/27 06:37:48;;;;;;;35.92;14.85;;;;;;;;;;5033106;28;20056;-89
2023/09/27 06:40:17;;;;;;;77.18;22.48;;;;;;;;;;5033403;28;20140;-90
2023/09/27 06:42:45;;;;;;;68.45;23.20;;;;;;;;;;5033273;28;20076;-90
2023/09/27 06:45:13;;;;;;;42.85;19.08;;;;;;;;;;5033587;28;20055;-90
2023/09/27 06:47:41;;;;;;;53.75;23.15;;;;;;;;;;5033028;28;20054;-89
2023/09/27 06:50:09;;;;;;;25.40;15.15;;;;;;;;;;5033009;28;20516;-89
2023/09/27 06:52:39;;;;;;;56.17;20.90;;;;;;;;;;5033262;28;20057;-88
2023/09/27 06:55:10;;;;;;;55.78;23.35;;;;;;;;;;5033164;28;20080;-89
2023/09/27 06:57:41;;;;;;;48.45;22.08;;;;;;;;;;5029643;28;20064;-88
2023/09/27 07:00:13;;;;;;;74.35;16.55;;;;;;;;;;5032688;28;20045;-88
2023/09/27 07:02:42;;;;;;;30.50;11.90;;;;;;;;;;5032483;28;20050;-88
2023/09/27 07:05:11;;;;;;;22.38;10.02;;;;;;;;;;5017051;28;20111;-88
2023/09/27 07:07:39;;;;;;;55.35;13.20;;;;;;;;;;5034118;28;20421;-87
2023/09/27 07:10:07;;;;;;;18.83;9.13;;;;;;;;;;5033949;28;20075;-88
2023/09/27 07:12:38;;;;;;;10.10;7.85;;;;;;;;;;5029524;28;20046;-88
2023/09/27 07:15:10;;;;;;;30.17;10.80;;;;;;;;;;5048940;28;20096;-88
2023/09/27 07:17:38;;;;;;;22.77;10.65;;;;;;;;;;5031760;28;20064;-87
2023/09/27 07:20:27;;;;;;;23.05;10.73;;;;;;;;;;5033765;28;20045;-87
2023/09/27 07:22:56;;;;;;;7.63;6.28;;;;;;;;;;5030979;28;20570;-87
2023/09/27 07:25:24;;;;;;;23.52;9.13;;;;;;;;;;5032499;28;20493;-88
2023/09/27 07:27:52;;;;;;;108.90;20.33;;;;;;;;;;5032166;28;20071;-87
2023/09/27 07:30:23;;;;;;;16.88;7.28;;;;;;;;;;5032289;28;20103;-87
2023/09/27 07:32:52;;;;;;;12.32;6.97;;;;;;;;;;5032105;28;20053;-87
2023/09/27 07:35:21;;;;;;;21.13;6.70;;;;;;;;;;5029003;28;20056;-88
2023/09/27 07:37:49;;;;;;;9.35;6.80;;;;;;;;;;5030756;28;20592;-88
2023/09/27 07:40:17;;;;;;;29.38;7.30;;;;;;;;;;5032242;28;20391;-87
2023/09/27 07:42:45;;;;;;;25.23;7.03;;;;;;;;;;5031890;28;20074;-88
2023/09/27 07:45:20;;;;;;;26.80;8.05;;;;;;;;;;5032510;28;20053;-87
2023/09/27 07:47:52;;;;;;;13.65;5.88;;;;;;;;;;5033582;28;20080;-87
2023/09/27 07:50:20;;;;;;;11.88;4.85;;;;;;;;;;5031996;28;20042;-88
2023/09/27 07:52:48;;;;;;;5.07;4.45;;;;;;;;;;5032011;28;20053;-87
2023/09/27 07:55:17;;;;;;;24.42;5.85;;;;;;;;;;5033193;28;20574;-86
2023/09/27 07:57:45;;;;;;;8.38;4.32;;;;;;;;;;5033167;28;20485;-87
2023/09/27 08:00:15;;;;;;;10.60;4.25;;;;;;;;;;5032871;28;20050;-86
2023/09/27 08:02:45;;;;;;;7.50;4.07;;;;;;;;;;5031556;28;20421;-87
2023/09/27 08:05:16;;;;;;;15.65;5.15;;;;;;;;;;5021991;28;20053;-87
2023/09/27 08:07:44;;;;;;;24.35;6.25;;;;;;;;;;5028296;28;20141;-88
2023/09/27 08:10:12;;;;;;;13.38;4.82;;;;;;;;;;5031732;28;20494;-88
2023/09/27 08:12:43;;;;;;;10.98;4.10;;;;;;;;;;5031559;28;20054;-88
2023/09/27 08:15:12;;;;;;;10.90;4.35;;;;;;;;;;5032114;28;20046;-88
2023/09/27 08:17:40;;;;;;;9.93;4.35;;;;;;;;;;5031379;28;20108;-88
2023/09/27 08:20:11;;;;;;;8.20;3.80;;;;;;;;;;5020195;28;20050;-88
2023/09/27 08:22:42;;;;;;;13.63;4.90;;;;;;;;;;5044140;28;20084;-87
2023/09/27 08:25:14;;;;;;;6.68;3.63;;;;;;;;;;5031856;28;20095;-87
2023/09/27 08:27:43;;;;;;;13.80;4.22;;;;;;;;;;5032445;28;20049;-89
2023/09/27 08:30:11;;;;;;;7.78;3.40;;;;;;;;;;5048090;28;20050;-89
2023/09/27 08:32:40;;;;;;;6.80;3.38;;;;;;;;;;5031301;28;20189;-89
2023/09/27 08:35:09;;;;;;;12.77;3.50;;;;;;;;;;5021716;28;20057;-88
2023/09/27 08:37:37;;;;;;;5.03;3.20;;;;;;;;;;5031481;28;20053;-89
2023/09/27 08:40:12;;;;;;;4.18;3.17;;;;;;;;;;5032496;28;20520;-88
2023/09/27 08:42:41;;;;;;;4.70;2.53;;;;;;;;;;5047614;28;20114;-87
2023/09/27 08:45:12;;;;;;;4.50;3.05;;;;;;;;;;5031204;28;20107;-90
2023/09/27 08:47:41;;;;;;;4.72;2.55;;;;;;;;;;5031114;28;20057;-89
2023/09/27 08:50:18;;;;;;;8.55;2.70;;;;;;;;;;5032011;28;20045;-91
2023/09/27 08:52:46;;;;;;;4.20;2.70;;;;;;;;;;5029052;28;20096;-94
2023/09/27 08:55:15;;;;;;;5.25;2.42;;;;;;;;;;5033445;28;20053;-89
2023/09/27 08:58:01;;;;;;;3.05;2.75;;;;;;;;;;5035347;28;20140;-89
2023/09/27 09:00:28;;;;;;;9.15;2.38;;;;;;;;;;5034966;28;20080;-90
2023/09/27 09:03:00;;;;;;;6.63;2.88;;;;;;;;;;5036070;28;20049;-89
2023/09/27 09:05:29;;;;;;;10.85;3.03;;;;;;;;;;5034954;28;20076;-87
2023/09/27 09:08:01;;;;;;;8.57;3.05;;;;;;;;;;5033598;28;20064;-89
2023/09/27 09:10:28;;;;;;;8.02;3.03;;;;;;;;;;5035143;28;20107;-89
2023/09/27 09:12:59;;;;;;;5.32;2.67;;;;;;;;;;5033291;28;20053;-87
2023/09/27 09:15:28;;;;;;;4.70;2.58;;;;;;;;;;5035730;28;20124;-89
2023/09/27 09:17:59;;;;;;;7.03;2.60;;;;;;;;;;5050879;28;20061;-89
2023/09/27 09:20:28;;;;;;;8.77;3.55;;;;;;;;;;5034537;28;20060;-88
2023/09/27 09:22:57;;;;;;;5.95;2.97;;;;;;;;;;5034890;28;20494;-90
2023/09/27 09:25:25;;;;;;;6.03;2.08;;;;;;;;;;5034698;28;20053;-89
2023/09/27 09:28:07;;;;;;;4.20;2.47;;;;;;;;;;5034494;28;20176;-89
2023/09/27 09:30:38;;;;;;;5.57;2.50;;;;;;;;;;5033631;28;20505;-87
2023/09/27 09:33:10;;;;;;;2.67;2.42;;;;;;;;;;5033733;28;20045;-87
2023/09/27 09:35:39;;;;;;;4.75;2.40;;;;;;;;;;5050161;28;20057;-84
2023/09/27 09:38:06;;;;;;;7.05;2.72;;;;;;;;;;5042302;28;20045;-87
2023/09/27 09:40:34;;;;;;;2.88;2.20;;;;;;;;;;5030456;28;20137;-86
2023/09/27 09:43:02;;;;;;;4.45;2.42;;;;;;;;;;5031475;28;20045;-86
2023/09/27 09:45:30;;;;;;;22.70;4.13;;;;;;;;;;5036748;28;20639;-85
2023/09/27 09:47:57;;;;;;;5.90;2.17;;;;;;;;;;5035344;28;20068;-89
2023/09/27 09:50:28;;;;;;;2.47;2.22;;;;;;;;;;5030694;28;20060;-91
2023/09/27 09:52:59;;;;;;;5.88;2.38;;;;;;;;;;5049252;28;20050;-90
2023/09/27 09:55:29;;;;;;;5.25;2.53;;;;;;;;;;5033841;28;20042;-88
2023/09/27 09:58:16;;;;;;;8.18;2.30;;;;;;;;;;5034086;28;20058;-89
2023/09/27 10:00:49;;;;;;;3.72;1.95;;;;;;;;;;5049966;28;20050;-86
2023/09/27 10:03:20;;;;;;;2.40;2.20;;;;;;;;;;5035006;28;20045;-89
2023/09/27 10:05:51;;;;;;;3.08;1.83;;;;;;;;;;5031279;28;20053;-89
2023/09/27 10:08:19;;;;;;;2.17;2.00;;;;;;;;;;5033750;28;20053;-88
2023/09/27 10:10:47;;;;;;;2.45;1.80;;;;;;;;;;5033806;28;20084;-90
2023/09/27 10:13:14;;;;;;;6.68;2.55;;;;;;;;;;5034897;28;20060;-89
2023/09/27 10:15:42;;;;;;;4.38;2.10;;;;;;;;;;5034841;28;20104;-93
2023/09/27 10:18:22;;;;;;;3.00;2.10;;;;;;;;;;5022518;28;20107;-88
2023/09/27 10:21:02;;;;;;;3.45;2.00;;;;;;;;;;5031811;28;20052;-89
2023/09/27 10:23:45;;;;;;;4.10;2.22;;;;;;;;;;5033985;28;20060;-90
2023/09/27 10:26:20;;;;;;;6.05;2.72;;;;;;;;;;5027352;28;20049;-90
2023/09/27 10:29:03;;;;;;;5.07;2.70;;;;;;;;;;5033388;28;20391;-88
2023/09/27 10:31:32;;;;;;;4.22;2.20;;;;;;;;;;5048989;28;20107;-89
2023/09/27 10:33:59;;;;;;;3.65;2.42;;;;;;;;;;5033455;28;20493;-88
2023/09/27 10:36:27;;;;;;;6.70;2.53;;;;;;;;;;5034081;28;20053;-93
2023/09/27 10:38:54;;;;;;;7.13;2.72;;;;;;;;;;5033524;28;20073;-91
2023/09/27 10:41:34;;;;;;;4.57;2.70;;;;;;;;;;5034088;28;20056;-92
2023/09/27 10:44:02;;;;;;;3.30;2.40;;;;;;;;;;5033715;28;20075;-92
2023/09/27 10:46:43;;;;;;;4.97;2.90;;;;;;;;;;5033366;28;20076;-89
2023/09/27 10:49:10;;;;;;;3.03;2.30;;;;;;;;;;5025382;28;20049;-89
2023/09/27 10:51:37;;;;;;;3.25;2.17;;;;;;;;;;5032694;28;20513;-89
2023/09/27 10:54:08;;;;;;;3.83;2.22;;;;;;;;;;5024902;28;20461;-91
2023/09/27 10:56:36;;;;;;;5.65;2.20;;;;;;;;;;5033296;28;20114;-89
2023/09/27 10:59:04;;;;;;;2.92;2.25;;;;;;;;;;5033184;28;20045;-90
2023/09/27 11:01:33;;;;;;;3.67;2.38;;;;;;;;;;5032845;28;20099;-91
2023/09/27 11:04:01;;;;;;;5.50;2.20;;;;;;;;;;5033780;28;20156;-88
2023/09/27 11:06:31;;;;;;;4.15;2.67;;;;;;;;;;5033940;28;20136;-92
2023/09/27 11:09:05;;;;;;;2.25;2.00;;;;;;;;;;5032774;28;20084;-89
2023/09/27 11:11:32;;;;;;;6.72;2.35;;;;;;;;;;5033099;28;20049;-88
2023/09/27 11:14:00;;;;;;;4.20;2.40;;;;;;;;;;5033096;28;20501;-94
2023/09/27 11:16:27;;;;;;;4.30;2.70;;;;;;;;;;5033472;28;20045;-91
2023/09/27 11:18:57;;;;;;;8.07;2.90;;;;;;;;;;5032400;28;20116;-91
2023/09/27 11:21:28;;;;;;;4.72;3.00;;;;;;;;;;5033002;28;20053;-91
2023/09/27 11:23:59;;;;;;;5.50;2.80;;;;;;;;;;5032882;28;20049;-90
2023/09/27 11:26:27;;;;;;;6.07;3.58;;;;;;;;;;5032803;28;20046;-94
2023/09/27 11:28:58;;;;;;;8.10;3.10;;;;;;;;;;5032569;28;20119;-92
2023/09/27 11:31:26;;;;;;;7.55;3.35;;;;;;;;;;5034148;28;20076;-89
2023/09/27 11:33:53;;;;;;;8.70;3.97;;;;;;;;;;5032473;28;20579;-89
2023/09/27 11:36:20;;;;;;;5.85;3.83;;;;;;;;;;5032974;28;20045;-95
2023/09/27 11:38:52;;;;;;;8.23;4.32;;;;;;;;;;5032743;28;20120;-92
2023/09/27 11:41:19;;;;;;;4.57;3.85;;;;;;;;;;5034011;28;20452;-92
2023/09/27 11:43:47;;;;;;;6.40;3.83;;;;;;;;;;5030648;28;20057;-90
2023/09/27 11:46:26;;;;;;;10.15;4.10;;;;;;;;;;5034134;28;20490;-90
2023/09/27 11:48:54;;;;;;;12.75;4.80;;;;;;;;;;5032437;28;20099;-89
2023/09/27 11:51:23;;;;;;;9.88;4.90;;;;;;;;;;5028980;28;20104;-92
2023/09/27 11:53:50;;;;;;;5.85;4.07;;;;;;;;;;5031010;28;20053;-91
2023/09/27 11:56:18;;;;;;;7.88;4.63;;;;;;;;;;5033097;28;20073;-92
2023/09/27 11:58:45;;;;;;;10.18;4.72;;;;;;;;;;5032096;28;20049;-93
2023/09/27 12:01:13;;;;;;;9.98;4.95;;;;;;;;;;5032355;28;20115;-90
2023/09/27 12:03:40;;;;;;;6.45;4.43;;;;;;;;;;5028241;28;20058;-86
2023/09/27 12:06:08;;;;;;;8.20;5.07;;;;;;;;;;5040474;28;20136;-91
2023/09/27 12:08:36;;;;;;;9.00;5.05;;;;;;;;;;5032020;28;20549;-95
2023/09/27 12:11:03;;;;;;;9.80;4.70;;;;;;;;;;5031656;28;20052;-92
2023/09/27 12:13:30;;;;;;;9.10;4.50;;;;;;;;;;5034351;28;20072;-90
2023/09/27 12:15:58;;;;;;;7.22;4.65;;;;;;;;;;5032298;28;20053;-92
2023/09/27 12:18:26;;;;;;;8.65;4.28;;;;;;;;;;5028348;28;20414;-91
2023/09/27 12:20:53;;;;;;;9.98;4.45;;;;;;;;;;5032182;28;20049;-91
2023/09/27 12:23:20;;;;;;;5.63;3.75;;;;;;;;;;5031956;28;20095;-93
2023/09/27 12:25:48;;;;;;;13.75;4.97;;;;;;;;;;5032640;28;20049;-92
2023/09/27 12:28:15;;;;;;;7.60;4.80;;;;;;;;;;5032298;28;20494;-92
2023/09/27 12:30:42;;;;;;;13.55;4.80;;;;;;;;;;5035748;28;20111;-90
2023/09/27 12:33:12;;;;;;;10.77;4.63;;;;;;;;;;5036455;28;20053;-94
2023/09/27 12:35:39;;;;;;;4.57;4.18;;;;;;;;;;5035820;28;20053;-92
2023/09/27 12:38:07;;;;;;;8.30;3.92;;;;;;;;;;5037102;28;20045;-93
2023/09/27 12:40:34;;;;;;;11.60;4.20;;;;;;;;;;5036297;28;20428;-93
2023/09/27 12:43:02;;;;;;;8.60;4.38;;;;;;;;;;5035784;28;20406;-94
2023/09/27 12:45:30;;;;;;;6.78;4.05;;;;;;;;;;5037502;28;20068;-94
2023/09/27 12:47:58;;;;;;;7.47;3.35;;;;;;;;;;5037040;28;20045;-90
2023/09/27 12:50:28;;;;;;;9.60;3.75;;;;;;;;;;5035068;28;20049;-91
2023/09/27 12:52:56;;;;;;;5.15;3.30;;;;;;;;;;5034564;28;20393;-90
2023/09/27 12:55:24;;;;;;;9.90;3.70;;;;;;;;;;5029862;28;20050;-93
2023/09/27 12:57:51;;;;;;;5.85;3.90;;;;;;;;;;5049872;28;20054;-91
2023/09/27 13:00:19;;;;;;;7.40;3.45;;;;;;;;;;5052393;28;20049;-93
2023/09/27 13:02:46;;;;;;;15.80;5.60;;;;;;;;;;5035103;28;20053;-92
2023/09/27 13:05:14;;;;;;;6.32;3.70;;;;;;;;;;5034877;28;20549;-95
2023/09/27 13:07:41;;;;;;;5.90;3.92;;;;;;;;;;5035241;28;20156;-91
2023/09/27 13:10:09;;;;;;;5.25;3.42;;;;;;;;;;5035470;28;20081;-95
2023/09/27 13:12:37;;;;;;;8.68;3.17;;;;;;;;;;5035617;28;20084;-94
2023/09/27 13:15:06;;;;;;;5.93;3.50;;;;;;;;;;5036881;28;20431;-92
2023/09/27 13:17:33;;;;;;;3.88;3.05;;;;;;;;;;5036597;28;20110;-95
2023/09/27 13:20:01;;;;;;;7.50;3.80;;;;;;;;;;5035356;28;20069;-92
2023/09/27 13:22:28;;;;;;;8.38;4.03;;;;;;;;;;5035907;28;20135;-91
2023/09/27 13:24:55;;;;;;;9.27;3.45;;;;;;;;;;5051405;28;20081;-93
2023/09/27 13:27:22;;;;;;;9.43;3.47;;;;;;;;;;5034908;28;20045;-93
2023/09/27 13:29:50;;;;;;;5.85;3.67;;;;;;;;;;5034566;28;20057;-94
2023/09/27 13:32:17;;;;;;;12.80;4.00;;;;;;;;;;5036206;28;20041;-96
2023/09/27 13:34:45;;;;;;;7.03;3.22;;;;;;;;;;5036379;28;20049;-94
2023/09/27 13:37:12;;;;;;;12.57;3.85;;;;;;;;;;5036822;28;20108;-92
2023/09/27 13:39:39;;;;;;;9.38;2.90;;;;;;;;;;5039363;28;20057;-92
2023/09/27 13:42:08;;;;;;;8.52;3.42;;;;;;;;;;5037044;28;20045;-91
2023/09/27 13:44:35;;;;;;;6.95;3.40;;;;;;;;;;5035976;28;20053;-91
2023/09/27 13:47:03;;;;;;;5.10;3.40;;;;;;;;;;5035167;28;20049;-92
2023/09/27 13:49:31;;;;;;;8.43;3.90;;;;;;;;;;5035029;28;20060;-92
2023/09/27 13:51:58;;;;;;;9.93;3.30;;;;;;;;;;5034479;28;20053;-90
2023/09/27 13:54:25;;;;;;;4.10;3.22;;;;;;;;;;5038987;28;20045;-96
2023/09/27 13:56:53;;;;;;;6.95;3.63;;;;;;;;;;5049759;28;20033;-96
2023/09/27 13:59:20;;;;;;;5.60;3.28;;;;;;;;;;5042879;28;20045;-96
2023/09/27 14:01:48;;;;;;;15.15;4.18;;;;;;;;;;5064713;22;20081;-88
2023/09/27 14:04:15;;;;;;;6.63;3.55;;;;;;;;;;5034271;28;20056;-87
2023/09/27 14:06:43;;;;;;;18.88;3.55;;;;;;;;;;5030506;28;20050;-87
2023/09/27 14:09:10;;;;;;;9.82;3.15;;;;;;;;;;5035196;28;20049;-88
2023/09/27 14:11:37;;;;;;;4.55;2.75;;;;;;;;;;5034090;28;20053;-87
2023/09/27 14:14:06;;;;;;;8.63;3.53;;;;;;;;;;5034268;28;20133;-87
2023/09/27 14:16:36;;;;;;;4.43;2.70;;;;;;;;;;5033760;28;20053;-87
2023/09/27 14:19:04;;;;;;;8.38;3.50;;;;;;;;;;5034569;28;20057;-87
2023/09/27 14:21:32;;;;;;;5.60;3.38;;;;;;;;;;5033770;28;20055;-87
2023/09/27 14:24:00;;;;;;;3.58;2.65;;;;;;;;;;5033477;28;20050;-87
2023/09/27 14:26:28;;;;;;;6.18;2.50;;;;;;;;;;5034400;28;20053;-87
2023/09/27 14:28:55;;;;;;;5.00;2.83;;;;;;;;;;5033536;28;20084;-88
2023/09/27 14:31:27;;;;;;;5.57;3.25;;;;;;;;;;5033162;28;20052;-89
2023/09/27 14:33:57;;;;;;;7.10;3.17;;;;;;;;;;5033826;28;20045;-90
2023/09/27 14:36:28;;;;;;;4.68;2.83;;;;;;;;;;5051368;28;20034;-87
2023/09/27 14:38:59;;;;;;;8.88;3.88;;;;;;;;;;5059257;28;20033;-86
2023/09/27 14:41:29;;;;;;;2.88;2.63;;;;;;;;;;5035908;28;20054;-89